Terminal Aerodrome Forecast
Issued by NWS

Home | Current Version | Previous Version | Text Only | Print | Product List | Glossary On
Versions: 1 2 3 4 5 6 7 8 9 10 11 12 13 14 15 16 17 18 19 20 21 22 23 24 25 26 27 28
000
FTUS43 KDLH 201200 AAA
TAFBRD
TAF AMD
KBRD 201205Z 2012/2112 16005KT 4SM BR FEW110
     FM201400 18013KT P6SM SCT050 BKN200
     FM210100 19004KT P6SM VCTS SCT050CB=

USA.gov is the U.S. government's official web portal to all federal, state and local government web resources and services.